createdAt,value
2017-09-18T00:01:35.984Z,87.89
2017-09-18T00:04:10.716Z,87.84
2017-09-18T00:06:45.224Z,88.02
2017-09-18T00:09:20.275Z,88.10
2017-09-18T00:11:55.176Z,88.03
2017-09-18T00:14:30.186Z,88.00
2017-09-18T00:17:05.202Z,87.99
2017-09-18T00:19:39.814Z,88.28
2017-09-18T00:22:14.791Z,88.58
2017-09-18T00:24:49.502Z,88.78
2017-09-18T00:27:24.410Z,89.56
2017-09-18T00:29:59.447Z,89.49
2017-09-18T00:32:34.191Z,89.18
2017-09-18T00:35:08.979Z,89.85
2017-09-18T00:37:43.839Z,89.34
2017-09-18T00:40:18.676Z,88.79
2017-09-18T00:42:53.265Z,88.99
2017-09-18T00:45:28.568Z,88.89
2017-09-18T00:48:03.257Z,89.07
2017-09-18T00:50:37.679Z,89.18
2017-09-18T00:53:12.775Z,89.26
2017-09-18T00:55:47.653Z,89.50
2017-09-18T00:58:22.292Z,89.75
2017-09-18T01:00:56.864Z,90.05
2017-09-18T01:03:31.750Z,90.03
2017-09-18T01:06:06.491Z,89.89
2017-09-18T01:08:41.268Z,90.28
2017-09-18T01:11:16.099Z,90.19
2017-09-18T01:13:51.131Z,90.91
2017-09-18T01:16:26.499Z,91.57
2017-09-18T01:19:01.759Z,91.25
2017-09-18T01:21:36.639Z,91.16
2017-09-18T01:24:12.013Z,91.48
2017-09-18T01:26:46.491Z,91.47
2017-09-18T01:29:21.520Z,91.43
2017-09-18T01:31:56.302Z,91.41
2017-09-18T01:34:31.188Z,90.90
2017-09-18T01:37:06.203Z,90.50
2017-09-18T01:39:41.216Z,90.64
2017-09-18T01:42:16.163Z,90.82
2017-09-18T01:44:51.171Z,90.96
2017-09-18T01:47:26.144Z,91.44
2017-09-18T01:50:01.176Z,91.72
2017-09-18T01:52:35.989Z,90.82
2017-09-18T01:55:10.980Z,90.59
2017-09-18T01:57:45.964Z,90.87
2017-09-18T02:00:21.191Z,90.80
2017-09-18T02:02:56.181Z,90.89
2017-09-18T02:05:31.015Z,91.39
2017-09-18T02:08:06.347Z,91.77
2017-09-18T02:10:41.303Z,92.03
2017-09-18T02:13:16.272Z,91.87
2017-09-18T02:15:50.987Z,91.79
2017-09-18T02:18:26.125Z,91.52
2017-09-18T02:21:01.138Z,91.59
2017-09-18T02:23:36.363Z,91.95
2017-09-18T02:26:11.479Z,91.95
2017-09-18T02:28:46.174Z,91.61
2017-09-18T02:31:21.383Z,92.39
2017-09-18T02:33:56.579Z,92.55
2017-09-18T02:36:31.310Z,91.92
2017-09-18T02:39:06.448Z,91.35
2017-09-18T02:41:41.144Z,91.35
2017-09-18T02:44:15.973Z,91.05
2017-09-18T02:46:50.775Z,92.53
2017-09-18T02:49:25.771Z,92.62
2017-09-18T02:52:00.831Z,92.19
2017-09-18T02:54:35.949Z,91.92
2017-09-18T02:57:10.958Z,91.62
2017-09-18T02:59:45.828Z,91.59
2017-09-18T03:02:21.326Z,91.85
2017-09-18T03:04:56.418Z,92.04
2017-09-18T03:07:31.223Z,91.96
2017-09-18T03:10:06.443Z,91.91
2017-09-18T03:12:41.435Z,92.01
2017-09-18T03:15:16.356Z,91.81
2017-09-18T03:17:51.264Z,92.54
2017-09-18T03:20:26.260Z,92.41
2017-09-18T03:23:01.472Z,92.32
2017-09-18T03:25:36.842Z,92.40
2017-09-18T03:28:11.723Z,92.36
2017-09-18T03:30:46.842Z,92.14
2017-09-18T03:33:21.598Z,91.96
2017-09-18T03:35:56.925Z,92.05
2017-09-18T03:38:32.234Z,91.83
2017-09-18T03:41:06.691Z,92.38
2017-09-18T03:43:41.851Z,93.39
2017-09-18T03:46:16.591Z,93.85
2017-09-18T03:48:51.290Z,94.49
2017-09-18T03:51:26.323Z,94.98
2017-09-18T03:54:01.183Z,95.31
2017-09-18T03:56:36.023Z,95.71
2017-09-18T03:59:10.763Z,95.70
2017-09-18T04:01:45.847Z,95.70
2017-09-18T04:04:20.502Z,95.95
2017-09-18T04:06:55.348Z,95.87
2017-09-18T04:09:30.165Z,95.48
2017-09-18T04:12:05.283Z,95.22
2017-09-18T04:14:40.408Z,95.29
2017-09-18T04:17:15.198Z,94.86
2017-09-18T04:19:50.092Z,94.58
2017-09-18T04:22:24.886Z,94.86
2017-09-18T04:24:59.779Z,94.93
2017-09-18T04:27:34.811Z,95.02
2017-09-18T04:30:10.016Z,95.18
2017-09-18T04:32:45.200Z,95.55
2017-09-18T04:35:20.106Z,95.48
2017-09-18T04:37:54.873Z,95.07
2017-09-18T04:40:29.867Z,94.59
2017-09-18T04:43:04.864Z,94.36
2017-09-18T04:45:39.743Z,94.10
2017-09-18T04:48:14.862Z,93.72
2017-09-18T04:50:50.272Z,93.45
2017-09-18T04:53:25.179Z,93.30
2017-09-18T04:56:00.115Z,93.17
2017-09-18T04:58:34.636Z,93.11
2017-09-18T05:01:09.654Z,92.96
2017-09-18T05:03:44.463Z,92.83
2017-09-18T05:06:19.247Z,92.73
2017-09-18T05:08:54.065Z,92.73
2017-09-18T05:11:28.951Z,92.77
2017-09-18T05:14:03.875Z,93.17
2017-09-18T05:16:38.671Z,93.52
2017-09-18T05:19:13.502Z,93.68
2017-09-18T05:21:48.492Z,93.76
2017-09-18T05:24:23.407Z,93.94
2017-09-18T05:26:58.703Z,94.35
2017-09-18T05:29:33.498Z,94.45
2017-09-18T05:32:08.287Z,94.66
2017-09-18T05:34:43.105Z,95.09
2017-09-18T05:37:17.911Z,95.13
2017-09-18T05:39:52.912Z,95.19
2017-09-18T05:42:27.990Z,95.37
2017-09-18T05:45:02.891Z,95.44
2017-09-18T05:47:37.894Z,95.23
2017-09-18T05:50:12.953Z,95.12
2017-09-18T05:52:47.798Z,95.02
2017-09-18T05:55:22.618Z,94.90
2017-09-18T05:57:57.691Z,94.81
2017-09-18T06:00:32.197Z,94.75
2017-09-18T06:03:06.960Z,94.61
2017-09-18T06:05:41.517Z,94.42
2017-09-18T06:08:16.745Z,94.19
2017-09-18T06:10:51.723Z,94.08
2017-09-18T06:13:27.131Z,94.07
2017-09-18T06:16:02.079Z,94.11
2017-09-18T06:18:37.051Z,94.02
2017-09-18T06:21:12.059Z,94.49
2017-09-18T06:23:46.759Z,94.70
2017-09-18T06:26:21.838Z,95.09
2017-09-18T06:28:56.821Z,94.79
2017-09-18T06:31:31.668Z,94.65
2017-09-18T06:34:06.575Z,94.85
2017-09-18T06:36:41.429Z,94.93
2017-09-18T06:39:16.427Z,94.81
2017-09-18T06:41:51.094Z,94.48
2017-09-18T06:44:26.246Z,94.32
2017-09-18T06:47:01.053Z,94.38
2017-09-18T06:49:36.015Z,94.52
2017-09-18T06:52:10.824Z,94.59
2017-09-18T06:54:45.975Z,94.72
2017-09-18T06:57:20.739Z,95.15
2017-09-18T06:59:55.750Z,95.32
2017-09-18T07:02:30.578Z,95.28
2017-09-18T07:05:05.611Z,95.58
2017-09-18T07:07:40.647Z,96.12
2017-09-18T07:10:15.557Z,96.41
2017-09-18T07:12:50.104Z,96.52
2017-09-18T07:15:24.585Z,96.73
2017-09-18T07:17:59.899Z,96.71
2017-09-18T07:20:34.737Z,96.90
2017-09-18T07:23:09.839Z,96.42
2017-09-18T07:25:44.892Z,96.35
2017-09-18T07:28:19.904Z,96.35
2017-09-18T07:30:54.760Z,96.54
2017-09-18T07:33:29.442Z,96.83
2017-09-18T07:36:05.281Z,96.91
2017-09-18T07:38:40.081Z,96.92
2017-09-18T07:41:15.075Z,97.10
2017-09-18T07:43:49.695Z,97.28
2017-09-18T07:46:24.821Z,96.96
2017-09-18T07:48:59.624Z,97.18
2017-09-18T07:51:34.259Z,97.06
2017-09-18T07:54:09.168Z,96.90
2017-09-18T07:56:44.043Z,96.84
2017-09-18T07:59:20.348Z,96.78
2017-09-18T08:01:55.206Z,96.92
2017-09-18T08:04:30.079Z,97.54
2017-09-18T08:07:04.993Z,97.48
2017-09-18T08:09:39.865Z,97.18
2017-09-18T08:12:15.034Z,97.10
2017-09-18T08:14:50.035Z,96.82
2017-09-18T08:17:24.983Z,96.58
2017-09-18T08:20:00.268Z,96.16
2017-09-18T08:22:34.895Z,95.62
2017-09-18T08:25:09.397Z,95.29
2017-09-18T08:27:44.121Z,95.33
2017-09-18T08:30:19.144Z,95.56
2017-09-18T08:32:54.477Z,95.84
2017-09-18T08:35:29.967Z,95.47
2017-09-18T08:38:05.260Z,95.19
2017-09-18T08:40:40.491Z,95.55
2017-09-18T08:43:15.208Z,95.89
2017-09-18T08:45:50.120Z,95.47
2017-09-18T08:48:25.219Z,93.94
2017-09-18T08:51:00.032Z,93.48
2017-09-18T08:53:34.970Z,93.45
2017-09-18T08:56:09.798Z,92.00
2017-09-18T08:58:44.600Z,91.90
2017-09-18T09:01:19.663Z,89.65
2017-09-18T09:03:54.762Z,88.11
2017-09-18T09:06:29.720Z,88.41
2017-09-18T09:09:04.258Z,89.42
2017-09-18T09:11:39.125Z,88.95
2017-09-18T09:14:13.515Z,89.45
2017-09-18T09:16:48.632Z,88.10
2017-09-18T09:19:23.730Z,87.73
2017-09-18T09:21:58.787Z,87.88
2017-09-18T09:24:33.788Z,88.29
2017-09-18T09:27:08.670Z,88.86
2017-09-18T09:29:43.679Z,89.07
2017-09-18T09:32:18.774Z,89.41
2017-09-18T09:34:54.122Z,89.10
2017-09-18T09:37:29.153Z,90.08
2017-09-18T09:40:04.055Z,88.06
2017-09-18T09:42:39.453Z,88.61
2017-09-18T09:45:14.157Z,89.56
2017-09-18T09:47:49.000Z,89.65
2017-09-18T09:50:23.754Z,90.13
2017-09-18T09:52:58.783Z,90.44
2017-09-18T09:55:33.675Z,89.94
2017-09-18T09:58:08.419Z,88.06
2017-09-18T10:00:43.531Z,87.46
2017-09-18T10:03:17.948Z,87.33
2017-09-18T10:05:52.881Z,86.55
2017-09-18T10:08:28.689Z,85.83
2017-09-18T10:11:03.789Z,85.79
2017-09-18T10:13:38.463Z,86.10
2017-09-18T10:16:13.300Z,86.91
2017-09-18T10:18:48.434Z,87.04
2017-09-18T10:21:23.367Z,86.98
2017-09-18T10:23:58.266Z,88.29
2017-09-18T10:26:33.490Z,89.23
2017-09-18T10:29:08.423Z,87.96
2017-09-18T10:31:42.931Z,88.29
2017-09-18T10:34:18.088Z,87.95
2017-09-18T10:36:53.174Z,87.60
2017-09-18T10:39:27.854Z,86.89
2017-09-18T10:42:02.883Z,87.19
2017-09-18T10:44:38.520Z,87.03
2017-09-18T10:47:14.031Z,87.01
2017-09-18T10:49:48.482Z,87.40
2017-09-18T10:52:23.600Z,85.02
2017-09-18T10:54:58.260Z,82.67
2017-09-18T10:57:33.908Z,82.89
2017-09-18T11:00:09.043Z,81.72
2017-09-18T11:02:43.750Z,80.87
2017-09-18T11:05:18.614Z,82.82
2017-09-18T11:07:54.203Z,82.28
2017-09-18T11:10:29.215Z,82.62
2017-09-18T11:13:04.130Z,82.95
2017-09-18T11:15:39.107Z,81.41
2017-09-18T11:18:14.000Z,80.64
2017-09-18T11:20:49.024Z,79.03
2017-09-18T11:23:24.377Z,78.31
2017-09-18T11:25:59.426Z,77.99
2017-09-18T11:28:34.318Z,78.43
2017-09-18T11:31:09.184Z,76.81
2017-09-18T11:33:44.451Z,76.71
2017-09-18T11:36:19.647Z,74.35
2017-09-18T11:38:54.598Z,75.12
2017-09-18T11:41:29.647Z,75.46
2017-09-18T11:44:04.449Z,76.27
2017-09-18T11:46:39.486Z,76.52
2017-09-18T11:49:14.190Z,75.76
2017-09-18T11:51:49.103Z,74.39
2017-09-18T11:54:24.002Z,75.09
2017-09-18T11:56:59.369Z,77.18
2017-09-18T11:59:33.934Z,74.51
2017-09-18T12:02:09.307Z,75.46
2017-09-18T12:04:44.686Z,76.16
2017-09-18T12:07:19.869Z,75.35
2017-09-18T12:09:55.038Z,74.18
2017-09-18T12:12:30.325Z,73.14
2017-09-18T12:15:05.184Z,74.09
2017-09-18T12:17:40.326Z,74.44
2017-09-18T12:20:15.332Z,72.42
2017-09-18T12:22:50.407Z,73.43
2017-09-18T12:25:25.319Z,73.60
2017-09-18T12:28:00.337Z,72.22
2017-09-18T12:30:35.424Z,71.68
2017-09-18T12:33:10.514Z,71.41
2017-09-18T12:35:45.474Z,72.08
2017-09-18T12:38:20.619Z,70.72
2017-09-18T12:40:55.414Z,70.21
2017-09-18T12:43:30.382Z,69.61
2017-09-18T12:46:05.247Z,69.27
2017-09-18T12:48:40.146Z,68.63
2017-09-18T12:51:14.987Z,67.27
2017-09-18T12:53:50.366Z,67.68
2017-09-18T12:56:25.483Z,66.40
2017-09-18T12:59:00.343Z,66.16
2017-09-18T13:01:36.363Z,64.80
2017-09-18T13:04:11.471Z,65.94
2017-09-18T13:06:46.680Z,64.55
2017-09-18T13:09:21.942Z,65.10
2017-09-18T13:11:56.737Z,67.79
2017-09-18T13:14:31.427Z,68.04
2017-09-18T13:17:06.664Z,66.87
2017-09-18T13:19:41.893Z,67.42
2017-09-18T13:22:17.298Z,66.89
2017-09-18T13:24:52.623Z,69.33
2017-09-18T13:27:27.622Z,69.30
2017-09-18T13:30:02.443Z,66.85
2017-09-18T13:32:38.122Z,67.29
2017-09-18T13:35:12.920Z,65.82
2017-09-18T13:37:47.781Z,66.51
2017-09-18T13:40:22.512Z,66.18
2017-09-18T13:42:57.423Z,63.26
2017-09-18T13:45:32.341Z,62.45
2017-09-18T13:48:07.703Z,63.12
2017-09-18T13:50:42.431Z,62.90
2017-09-18T13:53:17.157Z,63.24
2017-09-18T13:55:52.419Z,63.69
2017-09-18T13:58:27.378Z,62.73
2017-09-18T14:01:02.269Z,64.48
2017-09-18T14:03:37.222Z,65.97
2017-09-18T14:06:11.842Z,66.27
2017-09-18T14:08:46.883Z,66.50
2017-09-18T14:11:21.747Z,67.27
2017-09-18T14:13:57.111Z,68.34
2017-09-18T14:16:32.319Z,67.87
2017-09-18T14:19:07.628Z,67.34
2017-09-18T14:21:42.714Z,64.69
2017-09-18T14:24:17.906Z,63.80
2017-09-18T14:26:53.149Z,66.19
2017-09-18T14:29:28.343Z,68.49
2017-09-18T14:32:03.657Z,71.18
2017-09-18T14:34:39.134Z,70.88
2017-09-18T14:37:14.140Z,69.24
2017-09-18T14:39:49.070Z,67.55
2017-09-18T14:42:24.076Z,67.53
2017-09-18T14:44:58.935Z,67.58
2017-09-18T14:47:34.230Z,67.93
2017-09-18T14:50:09.497Z,68.88
2017-09-18T14:52:44.139Z,69.55
2017-09-18T14:55:18.886Z,70.23
2017-09-18T14:57:53.809Z,70.79
2017-09-18T15:00:28.832Z,70.98
2017-09-18T15:03:04.870Z,71.84
2017-09-18T15:05:39.797Z,73.74
2017-09-18T15:08:15.314Z,74.59
2017-09-18T15:10:49.886Z,76.25
2017-09-18T15:13:24.611Z,76.72
2017-09-18T15:15:59.338Z,77.13
2017-09-18T15:18:34.174Z,77.96
2017-09-18T15:21:09.263Z,78.54
2017-09-18T15:23:44.252Z,78.34
2017-09-18T15:26:19.267Z,77.59
2017-09-18T15:28:54.197Z,77.07
2017-09-18T15:31:28.503Z,76.09
2017-09-18T15:34:03.858Z,77.06
2017-09-18T15:36:39.927Z,77.88
2017-09-18T15:39:14.446Z,78.68
2017-09-18T15:41:49.618Z,78.07
2017-09-18T15:44:24.928Z,77.97
2017-09-18T15:46:59.325Z,77.58
2017-09-18T15:49:34.077Z,77.16
2017-09-18T15:52:08.861Z,76.70
2017-09-18T15:54:43.781Z,76.94
2017-09-18T15:57:18.685Z,77.03
2017-09-18T15:59:53.742Z,77.36
2017-09-18T16:02:28.593Z,77.59
2017-09-18T16:05:03.397Z,77.16
2017-09-18T16:07:38.868Z,77.15
2017-09-18T16:10:13.597Z,77.60
2017-09-18T16:12:48.509Z,77.88
2017-09-18T16:15:23.320Z,77.45
2017-09-18T16:17:58.348Z,77.56
2017-09-18T16:20:33.113Z,77.88
2017-09-18T16:23:07.936Z,78.72
2017-09-18T16:25:42.904Z,79.28
2017-09-18T16:28:18.004Z,80.19
2017-09-18T16:30:53.090Z,80.34
2017-09-18T16:33:28.132Z,80.04
2017-09-18T16:36:03.161Z,79.96
2017-09-18T16:38:38.241Z,80.77
2017-09-18T16:41:13.364Z,81.50
2017-09-18T16:43:48.306Z,81.64
2017-09-18T16:46:23.535Z,81.46
2017-09-18T16:48:59.805Z,81.28
2017-09-18T16:51:33.989Z,81.69
2017-09-18T16:54:09.288Z,81.82
2017-09-18T16:56:44.408Z,82.09
2017-09-18T16:59:19.269Z,82.65
2017-09-18T17:01:54.097Z,82.64
2017-09-18T17:04:29.157Z,82.55
2017-09-18T17:07:04.194Z,82.79
2017-09-18T17:09:38.891Z,82.92
2017-09-18T17:12:13.687Z,83.27
2017-09-18T17:14:48.492Z,83.94
2017-09-18T17:17:23.321Z,84.45
2017-09-18T17:19:58.105Z,84.54
2017-09-18T17:22:32.907Z,84.57
2017-09-18T17:25:07.767Z,84.51
2017-09-18T17:27:42.581Z,84.52
2017-09-18T17:30:17.397Z,84.48
2017-09-18T17:32:52.360Z,84.77
2017-09-18T17:35:27.272Z,85.39
2017-09-18T17:38:02.416Z,85.64
2017-09-18T17:40:37.309Z,85.66
2017-09-18T17:43:12.104Z,85.44
2017-09-18T17:45:46.909Z,85.36
2017-09-18T17:48:21.935Z,86.29
2017-09-18T17:50:56.871Z,86.29
2017-09-18T17:53:31.628Z,86.37
2017-09-18T17:56:06.965Z,86.29
2017-09-18T17:58:41.574Z,86.20
2017-09-18T18:01:16.589Z,87.19
2017-09-18T18:03:52.022Z,87.15
2017-09-18T18:06:27.048Z,87.06
2017-09-18T18:09:02.388Z,86.78
2017-09-18T18:11:37.238Z,86.81
2017-09-18T18:14:12.197Z,86.89
2017-09-18T18:16:47.231Z,86.76
2017-09-18T18:19:22.096Z,86.60
2017-09-18T18:21:57.137Z,86.58
2017-09-18T18:24:31.984Z,86.43
2017-09-18T18:27:06.583Z,86.55
2017-09-18T18:29:41.493Z,86.50
2017-09-18T18:32:16.280Z,86.60
2017-09-18T18:34:51.116Z,86.88
2017-09-18T18:37:26.074Z,86.93
2017-09-18T18:40:01.200Z,87.57
2017-09-18T18:42:36.228Z,87.61
2017-09-18T18:45:11.149Z,87.62
2017-09-18T18:47:46.275Z,88.52
2017-09-18T18:50:21.293Z,88.55
2017-09-18T18:52:56.126Z,88.36
2017-09-18T18:55:31.144Z,87.88
2017-09-18T18:58:05.721Z,87.96
2017-09-18T19:00:40.708Z,88.37
2017-09-18T19:03:15.381Z,89.02
2017-09-18T19:05:51.416Z,89.08
2017-09-18T19:08:26.021Z,88.62
2017-09-18T19:11:00.648Z,88.83
2017-09-18T19:13:35.206Z,88.48
2017-09-18T19:16:10.300Z,88.60
2017-09-18T19:18:45.434Z,88.33
2017-09-18T19:21:20.677Z,88.20
2017-09-18T19:23:55.641Z,88.51
2017-09-18T19:26:30.494Z,88.24
2017-09-18T19:29:05.468Z,89.31
2017-09-18T19:31:40.272Z,89.46
2017-09-18T19:34:14.927Z,89.37
2017-09-18T19:36:50.198Z,89.49
2017-09-18T19:39:24.645Z,89.81
2017-09-18T19:42:00.159Z,89.81
2017-09-18T19:44:35.166Z,89.80
2017-09-18T19:47:09.915Z,90.45
2017-09-18T19:49:45.126Z,90.98
2017-09-18T19:52:20.372Z,91.81
2017-09-18T19:54:55.304Z,91.22
2017-09-18T19:57:30.329Z,91.15
2017-09-18T20:00:05.605Z,91.55
2017-09-18T20:02:40.785Z,92.45
2017-09-18T20:05:15.869Z,93.29
2017-09-18T20:07:51.033Z,93.78
2017-09-18T20:10:26.053Z,93.70
2017-09-18T20:13:01.197Z,94.01
2017-09-18T20:15:36.327Z,94.15
2017-09-18T20:18:11.420Z,93.96
2017-09-18T20:20:46.560Z,93.94
2017-09-18T20:23:21.889Z,93.87
2017-09-18T20:25:56.925Z,93.76
2017-09-18T20:28:32.208Z,93.17
2017-09-18T20:31:07.404Z,92.85
2017-09-18T20:33:42.512Z,92.89
2017-09-18T20:36:16.824Z,92.67
2017-09-18T20:38:51.640Z,92.38
2017-09-18T20:41:26.401Z,92.04
2017-09-18T20:44:01.380Z,91.76
2017-09-18T20:46:36.350Z,91.38
2017-09-18T20:49:11.297Z,90.97
2017-09-18T20:51:46.176Z,90.69
2017-09-18T20:54:21.305Z,90.03
2017-09-18T20:56:56.312Z,90.00
2017-09-18T20:59:31.395Z,89.77
2017-09-18T21:02:06.256Z,89.72
2017-09-18T21:04:41.553Z,89.98
2017-09-18T21:07:16.280Z,90.20
2017-09-18T21:09:51.191Z,90.39
2017-09-18T21:12:25.776Z,90.68
2017-09-18T21:15:01.091Z,90.72
2017-09-18T21:17:35.984Z,90.96
2017-09-18T21:20:10.889Z,91.52
2017-09-18T21:22:46.067Z,92.04
2017-09-18T21:25:21.167Z,92.46
2017-09-18T21:27:56.450Z,92.46
2017-09-18T21:30:31.355Z,92.37
2017-09-18T21:33:06.557Z,92.36
2017-09-18T21:35:42.140Z,92.49
2017-09-18T21:38:17.448Z,92.39
2017-09-18T21:40:52.795Z,92.24
2017-09-18T21:43:28.255Z,92.33
2017-09-18T21:46:03.163Z,92.07
2017-09-18T21:48:38.079Z,92.49
2017-09-18T21:51:12.895Z,92.16
2017-09-18T21:53:48.179Z,91.90
2017-09-18T21:56:22.890Z,91.62
2017-09-18T21:58:57.731Z,91.67
2017-09-18T22:01:32.523Z,91.58
2017-09-18T22:04:07.811Z,91.64
2017-09-18T22:06:42.563Z,92.00
2017-09-18T22:09:17.580Z,92.29
2017-09-18T22:11:52.435Z,92.61
2017-09-18T22:14:27.487Z,92.25
2017-09-18T22:17:02.531Z,91.83
2017-09-18T22:19:37.687Z,91.60
2017-09-18T22:22:12.451Z,91.72
2017-09-18T22:24:47.659Z,91.95
2017-09-18T22:27:22.459Z,92.16
2017-09-18T22:29:57.265Z,92.40
2017-09-18T22:32:32.082Z,92.14
2017-09-18T22:35:07.063Z,91.77
2017-09-18T22:37:42.003Z,91.71
2017-09-18T22:40:17.158Z,91.74
2017-09-18T22:42:52.052Z,91.58
2017-09-18T22:45:26.470Z,91.35
2017-09-18T22:48:01.782Z,91.11
2017-09-18T22:50:36.851Z,90.95
2017-09-18T22:53:11.356Z,90.78
2017-09-18T22:55:46.318Z,90.63
2017-09-18T22:58:21.035Z,90.23
2017-09-18T23:00:55.971Z,90.52
2017-09-18T23:03:31.202Z,90.65
2017-09-18T23:06:06.009Z,91.12
2017-09-18T23:08:40.827Z,91.25
2017-09-18T23:11:15.632Z,91.45
2017-09-18T23:13:50.615Z,91.75
2017-09-18T23:16:25.415Z,92.12
2017-09-18T23:19:00.491Z,92.15
2017-09-18T23:21:34.994Z,92.34
2017-09-18T23:24:09.759Z,92.80
2017-09-18T23:26:44.803Z,93.17
2017-09-18T23:29:19.955Z,93.56
2017-09-18T23:31:54.963Z,93.53
2017-09-18T23:34:29.764Z,93.74
2017-09-18T23:37:04.815Z,93.58
2017-09-18T23:39:39.912Z,93.53
2017-09-18T23:42:14.931Z,93.38
2017-09-18T23:44:49.966Z,93.33
2017-09-18T23:47:25.059Z,93.57
2017-09-18T23:50:00.176Z,93.49
2017-09-18T23:52:35.240Z,93.54
2017-09-18T23:55:09.702Z,93.54
2017-09-18T23:57:44.470Z,93.30
